MiSS Sarah — WDE9595 — position and weather

sailwx.info

Track history (hours):
 
Tides and Currents Weather Stations Pressure Air Temp Water Temp Dewpoint Dewpoint Depression Visibility Wind Speed Wind Dir Waves Ship Positions

MiSS Sarah

Owner: Higman Barge Lines, Inc, Orange, TX. More information available from US FCC via Universal Licensing System and Coast Guard Vessel Documentation Center.

Last reported at 2017-Dec-10 15:19 UTC. Time now 2017-Dec-15 14:28 UTC.
Position N 32°44' W 091°06'.

Length 24 m; draft 9 m.

Type: Towing. MMSI: 367419040.

Date/timePositionNaut miles runAvg speedWind from/ knotsBaromVisibWave heightAir tempDewpointWater temp
2017-Dec-10 15:19N 32°44' W 091°06'2 5.4
2017-Dec-10 15:00N 32°44' W 091°04'4 4.3
2017-Dec-10 13:58N 32°40' W 091°07'2 4.8
2017-Dec-10 13:30N 32°39' W 091°09'2 3.7
2017-Dec-10 13:00N 32°37' W 091°09'3 5.2
2017-Dec-10 12:30N 32°35' W 091°07'2 4.8
2017-Dec-10 12:00N 32°33' W 091°06'2 4.2
2017-Dec-10 11:30N 32°31' W 091°07'2 4.6
2017-Dec-10 11:00N 32°29' W 091°07'3 5.2
2017-Dec-10 10:30N 32°27' W 091°05'2 4.5
2017-Dec-10 10:00N 32°26' W 091°02'2 3.6
2017-Dec-10 09:30N 32°25' W 091°00'2 3.5
2017-Dec-10 09:00N 32°24' W 090°60'0 0.5
2017-Dec-10 08:30N 32°23' W 090°60'2 3.3
2017-Dec-10 08:00N 32°22' W 091°00'2 4.6
2017-Dec-10 07:30N 32°21' W 090°58'1 1.3
2017-Dec-10 07:00N 32°21' W 090°57'0 0.2
2017-Dec-10 06:30N 32°21' W 090°57'2 4.4
2017-Dec-10 06:00N 32°20' W 090°54'2 4.5
2017-Dec-10 05:30N 32°18' W 090°55'0 0.6
2017-Dec-10 05:00N 32°18' W 090°56'0 0.0
2017-Dec-10 04:30N 32°18' W 090°56'2 3.6
2017-Dec-10 04:00N 32°17' W 090°57'3 5.1
2017-Dec-10 03:30N 32°15' W 090°59'3 5.2
2017-Dec-10 03:00N 32°12' W 090°59'3 5.2
2017-Dec-10 02:30N 32°10' W 091°00'2 4.7
2017-Dec-10 02:00N 32°07' W 091°01'3 5.1
2017-Dec-10 01:24N 32°08' W 091°05'2 4.4
2017-Dec-10 01:00N 32°07' W 091°07'5 3.3
2017-Dec-09 23:33N 32°03' W 091°03'0 4.4
2017-Dec-09 23:29N 32°03' W 091°03'  
2017-Dec-04 08:13N 29°57' W 090°23'0 0.0
2017-Dec-04 07:59N 29°57' W 090°23'0 0.0
2017-Dec-04 07:11N 29°57' W 090°23'0 0.0
2017-Dec-04 06:57N 29°57' W 090°23'0 0.0
2017-Dec-04 06:30N 29°57' W 090°23'0 0.0
2017-Dec-04 06:00N 29°57' W 090°23'0 0.0
2017-Dec-04 05:30N 29°57' W 090°23'0 0.0
2017-Dec-04 05:00N 29°57' W 090°23'0 0.0
2017-Dec-04 04:30N 29°57' W 090°23'0 0.0
2017-Dec-04 04:00N 29°57' W 090°23'0 0.0
2017-Dec-04 03:30N 29°57' W 090°23'0 0.0
2017-Dec-04 02:59N 29°57' W 090°23'0 0.0
2017-Dec-04 01:35N 29°57' W 090°23'24 0.8
2017-Dec-02 18:45N 29°33' W 090°24'2 6.5
2017-Dec-02 18:29N 29°33' W 090°26'3 6.4
2017-Dec-02 18:00N 29°34' W 090°30'3 6.2
2017-Dec-02 17:30N 29°34' W 090°33'3 5.5
2017-Dec-02 17:00N 29°35' W 090°36'2 4.5
2017-Dec-02 16:29N 29°36' W 090°39'3 5.6
2017-Dec-02 16:00N 29°37' W 090°42'2 3.5
2017-Dec-02 15:30N 29°35' W 090°43'2 3.6
2017-Dec-02 15:00N 29°34' W 090°44'1 2.5
2017-Dec-02 14:30N 29°33' W 090°45'0 0.8
2017-Dec-02 14:00N 29°33' W 090°45'1 2.8
2017-Dec-02 13:30N 29°32' W 090°47'3 6.5
2017-Dec-02 13:00N 29°32' W 090°51'3 6.3
2017-Dec-02 12:30N 29°33' W 090°54'56 4.4
2017-Dec-01 23:46N 29°51' W 091°55'3 5.5
2017-Dec-01 23:17N 29°50' W 091°58'2 5.9
2017-Dec-01 23:00N 29°50' W 091°60'3 5.5
2017-Dec-01 22:30N 29°49' W 092°03'3 5.9
2017-Dec-01 22:00N 29°48' W 092°06'3 5.7
2017-Dec-01 21:30N 29°47' W 092°09'2 4.9
2017-Dec-01 21:00N 29°47' W 092°12'3 5.1
2017-Dec-01 20:30N 29°48' W 092°14'2 4.4
2017-Dec-01 20:00N 29°49' W 092°17'3 5.4
2017-Dec-01 19:30N 29°50' W 092°19'35 3.2
2017-Dec-01 08:48N 29°56' W 092°59'2 4.3
2017-Dec-01 08:20N 29°56' W 093°01'1 4.3
2017-Dec-01 08:00N 29°56' W 093°03'2 4.6
2017-Dec-01 07:30N 29°56' W 093°05'2 4.6
2017-Dec-01 07:00N 29°56' W 093°08'1 1.5
2017-Dec-01 06:30N 29°56' W 093°09'2 4.1
2017-Dec-01 06:00N 29°57' W 093°11'2 4.3
2017-Dec-01 05:30N 29°59' W 093°12'1 2.8
2017-Dec-01 05:00N 30°00' W 093°14'2 3.3
2017-Dec-01 04:30N 30°02' W 093°14'2 3.0
2017-Dec-01 04:00N 30°02' W 093°16'1 2.8
2017-Dec-01 03:30N 30°04' W 093°16'2 3.1
2017-Dec-01 03:00N 30°05' W 093°17'1 2.0
2017-Dec-01 02:30N 30°06' W 093°18'1 1.6
2017-Dec-01 02:00N 30°06' W 093°19'0 0.0
2017-Dec-01 01:30N 30°06' W 093°19'0 0.0
2017-Dec-01 01:00N 30°06' W 093°19'0 0.0
2017-Dec-01 00:30N 30°06' W 093°19'0 0.0
2017-Dec-01 00:00N 30°06' W 093°19'0 0.0
2017-Nov-30 23:30N 30°06' W 093°19'0 0.0
2017-Nov-30 23:00N 30°06' W 093°19'0 0.0
2017-Nov-30 22:30N 30°06' W 093°19'0 0.0
2017-Nov-30 22:00N 30°06' W 093°19'0 0.0
2017-Nov-30 21:30N 30°06' W 093°19'0 0.1
2017-Nov-30 21:00N 30°06' W 093°19'0 0.0
2017-Nov-30 20:30N 30°06' W 093°19'0 0.0
2017-Nov-30 20:00N 30°06' W 093°19'0 0.0
2017-Nov-30 19:30N 30°06' W 093°19'0 0.0
2017-Nov-30 19:00N 30°06' W 093°19'0 0.0
2017-Nov-30 18:30N 30°06' W 093°19'0 0.0
2017-Nov-30 18:00N 30°06' W 093°19'0 0.0
2017-Nov-30 17:30N 30°06' W 093°19'0 0.0
2017-Nov-30 17:00N 30°06' W 093°19'0 0.0
2017-Nov-30 16:30N 30°06' W 093°19'0 0.0
2017-Nov-30 16:00N 30°06' W 093°19'0 0.0
2017-Nov-30 15:30N 30°06' W 093°19'  
Track history (hours):
 
Tides and Currents Weather Stations Pressure Air Temp Water Temp Dewpoint Dewpoint Depression Visibility Wind Speed Wind Dir Waves Ship Positions

MiSS Sarah

Owner: Higman Barge Lines, Inc, Orange, TX. More information available from US FCC via Universal Licensing System and Coast Guard Vessel Documentation Center.

Last reported at 2017-Dec-10 15:19 UTC. Time now 2017-Dec-15 14:28 UTC.
Position N 32°44' W 091°06'.

Length 24 m; draft 9 m.

Type: Towing. MMSI: 367419040.

Date/timePositionNaut miles runAvg speedWind from/ knotsBaromVisibWave heightAir tempDewpointWater temp
2017-Dec-10 15:19N 32°44' W 091°06'2 5.4
2017-Dec-10 15:00N 32°44' W 091°04'4 4.3
2017-Dec-10 13:58N 32°40' W 091°07'2 4.8
2017-Dec-10 13:30N 32°39' W 091°09'2 3.7
2017-Dec-10 13:00N 32°37' W 091°09'3 5.2
2017-Dec-10 12:30N 32°35' W 091°07'2 4.8
2017-Dec-10 12:00N 32°33' W 091°06'2 4.2
2017-Dec-10 11:30N 32°31' W 091°07'2 4.6
2017-Dec-10 11:00N 32°29' W 091°07'3 5.2
2017-Dec-10 10:30N 32°27' W 091°05'2 4.5
2017-Dec-10 10:00N 32°26' W 091°02'2 3.6
2017-Dec-10 09:30N 32°25' W 091°00'2 3.5
2017-Dec-10 09:00N 32°24' W 090°60'0 0.5
2017-Dec-10 08:30N 32°23' W 090°60'2 3.3
2017-Dec-10 08:00N 32°22' W 091°00'2 4.6
2017-Dec-10 07:30N 32°21' W 090°58'1 1.3
2017-Dec-10 07:00N 32°21' W 090°57'0 0.2
2017-Dec-10 06:30N 32°21' W 090°57'2 4.4
2017-Dec-10 06:00N 32°20' W 090°54'2 4.5
2017-Dec-10 05:30N 32°18' W 090°55'0 0.6
2017-Dec-10 05:00N 32°18' W 090°56'0 0.0
2017-Dec-10 04:30N 32°18' W 090°56'2 3.6
2017-Dec-10 04:00N 32°17' W 090°57'3 5.1
2017-Dec-10 03:30N 32°15' W 090°59'3 5.2
2017-Dec-10 03:00N 32°12' W 090°59'3 5.2
2017-Dec-10 02:30N 32°10' W 091°00'2 4.7
2017-Dec-10 02:00N 32°07' W 091°01'3 5.1
2017-Dec-10 01:24N 32°08' W 091°05'2 4.4
2017-Dec-10 01:00N 32°07' W 091°07'5 3.3
2017-Dec-09 23:33N 32°03' W 091°03'0 4.4
2017-Dec-09 23:29N 32°03' W 091°03'  
2017-Dec-04 08:13N 29°57' W 090°23'0 0.0
2017-Dec-04 07:59N 29°57' W 090°23'0 0.0
2017-Dec-04 07:11N 29°57' W 090°23'0 0.0
2017-Dec-04 06:57N 29°57' W 090°23'0 0.0
2017-Dec-04 06:30N 29°57' W 090°23'0 0.0
2017-Dec-04 06:00N 29°57' W 090°23'0 0.0
2017-Dec-04 05:30N 29°57' W 090°23'0 0.0
2017-Dec-04 05:00N 29°57' W 090°23'0 0.0
2017-Dec-04 04:30N 29°57' W 090°23'0 0.0
2017-Dec-04 04:00N 29°57' W 090°23'0 0.0
2017-Dec-04 03:30N 29°57' W 090°23'0 0.0
2017-Dec-04 02:59N 29°57' W 090°23'0 0.0
2017-Dec-04 01:35N 29°57' W 090°23'24 0.8
2017-Dec-02 18:45N 29°33' W 090°24'2 6.5
2017-Dec-02 18:29N 29°33' W 090°26'3 6.4
2017-Dec-02 18:00N 29°34' W 090°30'3 6.2
2017-Dec-02 17:30N 29°34' W 090°33'3 5.5
2017-Dec-02 17:00N 29°35' W 090°36'2 4.5
2017-Dec-02 16:29N 29°36' W 090°39'3 5.6
2017-Dec-02 16:00N 29°37' W 090°42'2 3.5
2017-Dec-02 15:30N 29°35' W 090°43'2 3.6
2017-Dec-02 15:00N 29°34' W 090°44'1 2.5
2017-Dec-02 14:30N 29°33' W 090°45'0 0.8
2017-Dec-02 14:00N 29°33' W 090°45'1 2.8
2017-Dec-02 13:30N 29°32' W 090°47'3 6.5
2017-Dec-02 13:00N 29°32' W 090°51'3 6.3
2017-Dec-02 12:30N 29°33' W 090°54'56 4.4
2017-Dec-01 23:46N 29°51' W 091°55'3 5.5
2017-Dec-01 23:17N 29°50' W 091°58'2 5.9
2017-Dec-01 23:00N 29°50' W 091°60'3 5.5
2017-Dec-01 22:30N 29°49' W 092°03'3 5.9
2017-Dec-01 22:00N 29°48' W 092°06'3 5.7
2017-Dec-01 21:30N 29°47' W 092°09'2 4.9
2017-Dec-01 21:00N 29°47' W 092°12'3 5.1
2017-Dec-01 20:30N 29°48' W 092°14'2 4.4
2017-Dec-01 20:00N 29°49' W 092°17'3 5.4
2017-Dec-01 19:30N 29°50' W 092°19'35 3.2
2017-Dec-01 08:48N 29°56' W 092°59'2 4.3
2017-Dec-01 08:20N 29°56' W 093°01'1 4.3
2017-Dec-01 08:00N 29°56' W 093°03'2 4.6
2017-Dec-01 07:30N 29°56' W 093°05'2 4.6
2017-Dec-01 07:00N 29°56' W 093°08'1 1.5
2017-Dec-01 06:30N 29°56' W 093°09'2 4.1
2017-Dec-01 06:00N 29°57' W 093°11'2 4.3
2017-Dec-01 05:30N 29°59' W 093°12'1 2.8
2017-Dec-01 05:00N 30°00' W 093°14'2 3.3
2017-Dec-01 04:30N 30°02' W 093°14'2 3.0
2017-Dec-01 04:00N 30°02' W 093°16'1 2.8
2017-Dec-01 03:30N 30°04' W 093°16'2 3.1
2017-Dec-01 03:00N 30°05' W 093°17'1 2.0
2017-Dec-01 02:30N 30°06' W 093°18'1 1.6
2017-Dec-01 02:00N 30°06' W 093°19'0 0.0
2017-Dec-01 01:30N 30°06' W 093°19'0 0.0
2017-Dec-01 01:00N 30°06' W 093°19'0 0.0
2017-Dec-01 00:30N 30°06' W 093°19'0 0.0
2017-Dec-01 00:00N 30°06' W 093°19'0 0.0
2017-Nov-30 23:30N 30°06' W 093°19'0 0.0
2017-Nov-30 23:00N 30°06' W 093°19'0 0.0
2017-Nov-30 22:30N 30°06' W 093°19'0 0.0
2017-Nov-30 22:00N 30°06' W 093°19'0 0.0
2017-Nov-30 21:30N 30°06' W 093°19'0 0.1
2017-Nov-30 21:00N 30°06' W 093°19'0 0.0
2017-Nov-30 20:30N 30°06' W 093°19'0 0.0
2017-Nov-30 20:00N 30°06' W 093°19'0 0.0
2017-Nov-30 19:30N 30°06' W 093°19'0 0.0
2017-Nov-30 19:00N 30°06' W 093°19'0 0.0
2017-Nov-30 18:30N 30°06' W 093°19'0 0.0
2017-Nov-30 18:00N 30°06' W 093°19'0 0.0
2017-Nov-30 17:30N 30°06' W 093°19'0 0.0
2017-Nov-30 17:00N 30°06' W 093°19'0 0.0
2017-Nov-30 16:30N 30°06' W 093°19'0 0.0
2017-Nov-30 16:00N 30°06' W 093°19'0 0.0
2017-Nov-30 15:30N 30°06' W 093°19'  

Dump ship's entire track history